createdAt,value
2019-05-14T00:00:42.473Z,37.23
2019-05-14T00:03:18.275Z,38.45
2019-05-14T00:05:55.316Z,38.13
2019-05-14T00:08:31.433Z,37.42
2019-05-14T00:11:09.523Z,39.75
2019-05-14T00:13:46.873Z,40.08
2019-05-14T00:16:25.740Z,35.63
2019-05-14T00:19:01.889Z,37.00
2019-05-14T00:21:42.559Z,36.77
2019-05-14T00:24:21.693Z,37.20
2019-05-14T00:26:59.042Z,36.10
2019-05-14T00:29:35.858Z,35.80
2019-05-14T00:32:14.234Z,36.77
2019-05-14T00:34:51.593Z,34.70
2019-05-14T00:37:29.272Z,34.08
2019-05-14T00:40:11.775Z,35.80
2019-05-14T00:42:47.670Z,35.00
2019-05-14T00:45:25.251Z,35.52
2019-05-14T00:48:02.472Z,33.75
2019-05-14T00:50:47.001Z,33.80
2019-05-14T00:53:23.229Z,31.17
2019-05-14T00:56:06.567Z,32.20
2019-05-14T00:58:43.948Z,31.12
2019-05-14T01:01:21.513Z,31.75
2019-05-14T01:04:01.112Z,34.08
2019-05-14T01:06:37.975Z,36.33
2019-05-14T01:09:23.427Z,34.45
2019-05-14T01:12:01.872Z,32.58
2019-05-14T01:14:38.386Z,32.78
2019-05-14T01:17:15.412Z,31.55
2019-05-14T01:19:55.942Z,33.35
2019-05-14T01:22:32.260Z,32.90
2019-05-14T01:25:09.201Z,32.70
2019-05-14T01:27:45.603Z,31.57
2019-05-14T01:30:23.107Z,31.37
2019-05-14T01:33:03.401Z,28.65
2019-05-14T01:35:42.020Z,30.00
2019-05-14T01:38:17.819Z,27.73
2019-05-14T01:40:54.494Z,26.65
2019-05-14T01:43:41.749Z,28.05
2019-05-14T01:46:16.875Z,28.63
2019-05-14T01:48:53.428Z,33.88
2019-05-14T01:51:31.903Z,30.95
2019-05-14T01:54:07.545Z,31.23
2019-05-14T01:56:43.419Z,44.63
2019-05-14T01:59:21.314Z,45.55
2019-05-14T02:01:57.294Z,42.88
2019-05-14T02:04:35.362Z,38.13
2019-05-14T02:07:15.899Z,33.88
2019-05-14T02:09:51.612Z,36.85
2019-05-14T02:12:27.724Z,39.48
2019-05-14T02:15:03.389Z,38.85
2019-05-14T02:17:41.396Z,45.28
2019-05-14T02:20:18.774Z,41.50
2019-05-14T02:22:54.578Z,40.52
2019-05-14T02:25:32.976Z,42.40
2019-05-14T02:28:11.404Z,39.75
2019-05-14T02:30:55.969Z,41.35
2019-05-14T02:33:22.219Z,38.65
2019-05-14T02:35:59.913Z,40.58
2019-05-14T02:38:34.312Z,40.10
2019-05-14T02:41:12.890Z,39.45
2019-05-14T02:43:50.301Z,39.83
2019-05-14T02:48:59.487Z,40.63
2019-05-14T02:51:38.911Z,42.50
2019-05-14T02:54:13.972Z,43.98
2019-05-14T02:56:49.546Z,37.83
2019-05-14T02:59:30.190Z,43.57
2019-05-14T03:04:35.686Z,39.95
2019-05-14T03:07:12.586Z,42.15
2019-05-14T03:09:50.418Z,42.17
2019-05-14T03:12:25.758Z,44.20
2019-05-14T03:15:01.811Z,43.63
2019-05-14T03:17:43.366Z,46.55
2019-05-14T03:20:30.943Z,69.65
2019-05-14T03:23:17.813Z,45.58
2019-05-14T03:28:20.575Z,47.65
2019-05-14T03:30:55.383Z,43.20
2019-05-14T03:33:33.221Z,45.17
2019-05-14T03:36:16.593Z,45.30
2019-05-14T03:38:49.984Z,46.45
2019-05-14T03:41:30.335Z,45.05
2019-05-14T03:44:05.190Z,49.42
2019-05-14T03:46:51.442Z,52.85
2019-05-14T03:49:19.827Z,48.25
2019-05-14T03:52:00.375Z,48.38
2019-05-14T03:54:35.428Z,50.52
2019-05-14T03:57:11.967Z,53.63
2019-05-14T03:59:49.842Z,51.28
2019-05-14T04:02:29.738Z,59.60
2019-05-14T04:05:09.574Z,54.63
2019-05-14T04:07:49.933Z,57.23
2019-05-14T04:10:31.007Z,62.13
2019-05-14T04:13:09.109Z,67.15
2019-05-14T04:15:49.749Z,67.53
2019-05-14T04:18:28.600Z,73.62
2019-05-14T04:21:10.003Z,73.50
2019-05-14T04:23:45.849Z,74.45
2019-05-14T04:26:24.741Z,75.35
2019-05-14T04:29:04.362Z,69.70
2019-05-14T04:31:44.495Z,79.72
2019-05-14T04:34:22.241Z,79.15
2019-05-14T04:36:59.680Z,79.92
2019-05-14T04:39:50.342Z,79.07
2019-05-14T04:42:40.466Z,76.62
2019-05-14T04:45:19.428Z,78.65
2019-05-14T04:50:33.736Z,76.97
2019-05-14T04:53:30.716Z,76.28
2019-05-14T04:56:05.443Z,78.65
2019-05-14T04:58:51.409Z,77.12
2019-05-14T05:01:30.273Z,76.53
2019-05-14T05:04:14.243Z,77.90
2019-05-14T05:06:59.269Z,74.72
2019-05-14T05:09:39.730Z,68.12
2019-05-14T05:12:15.927Z,71.65
2019-05-14T05:14:54.422Z,71.92
2019-05-14T05:17:44.216Z,73.30
2019-05-14T05:22:54.855Z,71.35
2019-05-14T05:25:32.575Z,71.02
2019-05-14T05:28:11.249Z,65.60
2019-05-14T05:30:49.352Z,70.95
2019-05-14T05:33:29.135Z,64.03
2019-05-14T05:36:19.020Z,66.75
2019-05-14T05:39:20.223Z,71.37
2019-05-14T05:42:09.274Z,69.75
2019-05-14T05:44:48.702Z,67.67
2019-05-14T05:47:29.021Z,68.10
2019-05-14T05:50:04.702Z,67.45
2019-05-14T05:52:40.886Z,69.65
2019-05-14T05:55:19.000Z,73.95
2019-05-14T06:00:40.608Z,70.67
2019-05-14T06:03:20.594Z,72.03
2019-05-14T06:06:01.108Z,68.75
2019-05-14T06:08:49.029Z,67.67
2019-05-14T06:11:24.805Z,69.65
2019-05-14T06:14:03.948Z,72.00
2019-05-14T06:16:39.660Z,71.53
2019-05-14T06:19:23.185Z,109.92
2019-05-14T06:21:59.959Z,109.67
2019-05-14T06:24:36.134Z,263.70
2019-05-14T06:27:12.218Z,177.43
2019-05-14T06:29:50.657Z,109.57
2019-05-14T06:32:31.419Z,77.27
2019-05-14T06:35:11.666Z,78.65
2019-05-14T06:37:49.043Z,83.60
2019-05-14T06:40:28.557Z,197.60
2019-05-14T06:43:04.219Z,124.85
2019-05-14T06:48:29.864Z,78.57
2019-05-14T06:51:04.147Z,86.02
2019-05-14T06:56:35.263Z,77.40
2019-05-14T06:59:10.781Z,106.72
2019-05-14T07:01:48.782Z,91.53
2019-05-14T07:04:25.208Z,82.97
2019-05-14T07:07:01.265Z,80.15
2019-05-14T07:09:43.672Z,117.22
2019-05-14T07:15:13.135Z,105.95
2019-05-14T07:17:58.406Z,91.75
2019-05-14T07:20:39.226Z,93.85
2019-05-14T07:23:19.227Z,76.87
2019-05-14T07:25:54.128Z,81.78
2019-05-14T07:28:30.293Z,79.75
2019-05-14T07:31:10.597Z,81.92
2019-05-14T07:33:48.976Z,82.05
2019-05-14T07:36:23.162Z,92.55
2019-05-14T07:39:00.244Z,102.40
2019-05-14T07:41:38.776Z,103.40
2019-05-14T07:44:18.192Z,98.70
2019-05-14T07:46:52.703Z,99.25
2019-05-14T07:49:29.068Z,127.07
2019-05-14T07:52:10.411Z,165.15
2019-05-14T07:54:48.072Z,107.58
2019-05-14T07:57:22.475Z,108.25
2019-05-14T08:00:00.303Z,381.00
2019-05-14T08:02:38.028Z,456.20
2019-05-14T08:05:13.707Z,108.97
2019-05-14T08:07:49.605Z,194.10
2019-05-14T08:10:25.874Z,240.80
2019-05-14T08:13:01.677Z,86.63
2019-05-14T08:15:38.667Z,101.82
2019-05-14T08:18:20.956Z,116.40
2019-05-14T08:20:58.975Z,83.00
2019-05-14T08:23:33.792Z,75.95
2019-05-14T08:26:10.835Z,199.65
2019-05-14T08:28:48.653Z,80.00
2019-05-14T08:31:24.611Z,74.30
2019-05-14T08:36:38.133Z,79.75
2019-05-14T08:39:14.714Z,112.97
2019-05-14T08:41:59.333Z,80.65
2019-05-14T08:44:29.389Z,100.53
2019-05-14T08:49:46.160Z,76.90
2019-05-14T08:52:23.180Z,78.78
2019-05-14T08:55:07.007Z,78.78
2019-05-14T08:57:38.756Z,79.55
2019-05-14T09:00:14.397Z,87.15
2019-05-14T09:02:50.965Z,79.92
2019-05-14T09:05:28.560Z,78.37
2019-05-14T09:08:04.440Z,83.35
2019-05-14T09:10:40.775Z,81.97
2019-05-14T09:13:18.422Z,83.22
2019-05-14T09:15:53.568Z,84.10
2019-05-14T09:21:05.649Z,83.70
2019-05-14T09:23:42.032Z,79.23
2019-05-14T09:26:21.549Z,80.95
2019-05-14T09:28:58.676Z,79.15
2019-05-14T09:31:35.613Z,74.17
2019-05-14T09:34:19.407Z,76.95
2019-05-14T09:36:53.146Z,75.83
2019-05-14T09:39:30.181Z,100.22
2019-05-14T09:42:07.947Z,68.65
2019-05-14T09:44:48.870Z,70.22
2019-05-14T09:47:23.137Z,66.55
2019-05-14T09:50:15.318Z,71.15
2019-05-14T09:52:38.894Z,66.57
2019-05-14T09:55:14.077Z,76.12
2019-05-14T09:57:51.345Z,66.28
2019-05-14T10:00:26.925Z,65.67
2019-05-14T10:03:02.644Z,59.42
2019-05-14T10:05:38.644Z,60.45
2019-05-14T10:08:14.448Z,58.98
2019-05-14T10:10:50.930Z,62.17
2019-05-14T10:13:28.064Z,57.38
2019-05-14T10:16:04.643Z,59.27
2019-05-14T10:18:41.642Z,57.95
2019-05-14T10:21:19.125Z,54.25
2019-05-14T10:23:55.127Z,54.90
2019-05-14T10:26:31.661Z,55.60
2019-05-14T10:29:08.657Z,53.98
2019-05-14T10:34:23.534Z,49.55
2019-05-14T10:36:59.719Z,51.13
2019-05-14T10:39:35.550Z,51.90
2019-05-14T10:42:11.757Z,55.50
2019-05-14T10:44:47.957Z,50.78
2019-05-14T10:47:23.924Z,49.13
2019-05-14T10:53:02.007Z,49.45
2019-05-14T10:55:38.635Z,46.83
2019-05-14T10:58:14.743Z,46.15
2019-05-14T11:00:50.441Z,46.88
2019-05-14T11:03:29.728Z,232.50
2019-05-14T11:06:03.648Z,55.95
2019-05-14T11:08:42.290Z,64.37
2019-05-14T11:11:18.510Z,101.82
2019-05-14T11:13:55.066Z,47.50
2019-05-14T11:16:30.662Z,43.55
2019-05-14T11:19:09.077Z,38.42
2019-05-14T11:24:21.689Z,36.85
2019-05-14T11:26:59.144Z,32.50
2019-05-14T11:29:34.281Z,32.38
2019-05-14T11:32:11.628Z,32.67
2019-05-14T11:34:49.238Z,34.65
2019-05-14T11:37:24.834Z,33.05
2019-05-14T11:40:00.718Z,33.38
2019-05-14T11:45:14.625Z,33.78
2019-05-14T11:47:50.334Z,30.62
2019-05-14T11:50:28.475Z,35.40
2019-05-14T11:53:03.192Z,38.95
2019-05-14T11:55:45.305Z,34.78
2019-05-14T11:58:21.557Z,36.35
2019-05-14T12:00:58.461Z,31.60
2019-05-14T12:03:35.307Z,33.80
2019-05-14T12:06:11.877Z,33.50
2019-05-14T12:08:47.815Z,34.50
2019-05-14T12:13:59.836Z,34.63
2019-05-14T12:16:35.619Z,32.38
2019-05-14T12:19:12.439Z,34.05
2019-05-14T12:22:02.280Z,36.33
2019-05-14T12:24:25.261Z,33.92
2019-05-14T12:27:01.283Z,34.13
2019-05-14T12:29:39.520Z,33.33
2019-05-14T12:32:14.322Z,33.15
2019-05-14T12:34:51.128Z,31.77
2019-05-14T12:40:01.052Z,31.25
2019-05-14T12:42:42.264Z,33.55
2019-05-14T12:45:21.955Z,33.50
2019-05-14T12:47:58.453Z,33.08
2019-05-14T12:50:35.453Z,33.65
2019-05-14T12:53:13.973Z,33.18
2019-05-14T12:55:49.920Z,33.78
2019-05-14T12:58:29.702Z,35.00
2019-05-14T13:01:05.375Z,35.52
2019-05-14T13:06:19.102Z,31.73
2019-05-14T13:08:54.581Z,32.23
2019-05-14T13:11:30.241Z,31.05
2019-05-14T13:14:10.382Z,29.20
2019-05-14T13:16:48.577Z,31.52
2019-05-14T13:19:28.620Z,31.65
2019-05-14T13:22:12.990Z,32.48
2019-05-14T13:24:51.562Z,33.00
2019-05-14T13:27:28.725Z,30.52
2019-05-14T13:32:42.375Z,24.65
2019-05-14T13:35:19.875Z,24.63
2019-05-14T13:37:58.610Z,24.40
2019-05-14T13:40:35.015Z,25.65
2019-05-14T13:43:14.545Z,26.20
2019-05-14T13:45:55.746Z,25.48
2019-05-14T13:48:38.657Z,24.23
2019-05-14T13:51:19.788Z,26.25
2019-05-14T13:53:58.762Z,26.17
2019-05-14T13:56:35.923Z,25.08
2019-05-14T13:59:18.826Z,25.88
2019-05-14T14:04:33.734Z,25.17
2019-05-14T14:07:12.147Z,25.68
2019-05-14T14:09:49.805Z,25.32
2019-05-14T14:12:29.327Z,26.87
2019-05-14T14:15:09.450Z,28.57
2019-05-14T14:17:49.409Z,29.02
2019-05-14T14:20:29.064Z,28.50
2019-05-14T14:25:53.388Z,27.73
2019-05-14T14:28:39.278Z,29.52
2019-05-14T14:37:02.394Z,32.90
2019-05-14T14:39:48.629Z,33.65
2019-05-14T14:42:24.364Z,33.75
2019-05-14T14:45:08.446Z,35.98
2019-05-14T14:47:50.026Z,37.38
2019-05-14T14:50:29.262Z,36.93
2019-05-14T14:53:09.199Z,37.28
2019-05-14T14:55:49.507Z,40.35
2019-05-14T14:58:28.509Z,37.40
2019-05-14T15:01:21.537Z,37.17
2019-05-14T15:04:00.024Z,38.75
2019-05-14T15:06:39.979Z,35.40
2019-05-14T15:09:26.307Z,32.78
2019-05-14T15:12:01.994Z,26.80
2019-05-14T15:14:39.485Z,27.15
2019-05-14T15:17:30.095Z,26.33
2019-05-14T15:20:09.899Z,28.50
2019-05-14T15:22:49.203Z,29.15
2019-05-14T15:25:25.759Z,28.67
2019-05-14T15:34:01.612Z,35.70
2019-05-14T15:36:48.968Z,32.23
2019-05-14T15:39:29.875Z,32.93
2019-05-14T15:42:06.018Z,30.65
2019-05-14T15:44:54.468Z,29.67
2019-05-14T15:47:20.784Z,31.97
2019-05-14T15:52:59.090Z,27.90
2019-05-14T15:55:34.762Z,21.15
2019-05-14T15:58:13.572Z,28.00
2019-05-14T16:00:50.100Z,20.68
2019-05-14T16:06:19.884Z,25.10
2019-05-14T16:08:59.002Z,24.67
2019-05-14T16:11:36.181Z,29.95
2019-05-14T16:14:19.123Z,25.30
2019-05-14T16:16:59.199Z,26.68
2019-05-14T16:19:40.127Z,28.05
2019-05-14T16:22:29.436Z,27.42
2019-05-14T16:25:12.349Z,29.45
2019-05-14T16:27:50.939Z,33.67
2019-05-14T16:30:29.023Z,30.43
2019-05-14T16:36:02.507Z,30.48
2019-05-14T16:38:39.478Z,24.23
2019-05-14T16:41:18.246Z,24.57
2019-05-14T16:46:28.704Z,18.23
2019-05-14T16:49:03.359Z,19.15
2019-05-14T16:51:39.144Z,21.57
2019-05-14T16:54:18.206Z,23.02
2019-05-14T16:56:53.338Z,19.07
2019-05-14T16:59:34.900Z,18.45
2019-05-14T17:02:11.369Z,19.55
2019-05-14T17:04:48.339Z,22.07
2019-05-14T17:07:28.795Z,24.52
2019-05-14T17:10:03.846Z,28.80
2019-05-14T17:12:52.009Z,35.43
2019-05-14T17:15:18.734Z,31.23
2019-05-14T17:17:55.343Z,29.42
2019-05-14T17:20:31.102Z,31.33
2019-05-14T17:23:08.898Z,31.12
2019-05-14T17:25:43.407Z,32.65
2019-05-14T17:28:20.426Z,34.15
2019-05-14T17:30:58.675Z,29.85
2019-05-14T17:33:34.160Z,27.35
2019-05-14T17:36:11.216Z,30.15
2019-05-14T17:38:48.937Z,31.77
2019-05-14T17:41:24.276Z,32.08
2019-05-14T17:44:01.223Z,33.90
2019-05-14T17:49:12.661Z,31.02
2019-05-14T17:51:48.612Z,33.08
2019-05-14T17:54:28.235Z,30.90
2019-05-14T17:57:02.959Z,31.35
2019-05-14T17:59:39.050Z,26.82
2019-05-14T18:02:15.019Z,26.97
2019-05-14T18:04:51.086Z,28.98
2019-05-14T18:07:28.540Z,31.00
2019-05-14T18:12:39.634Z,34.20
2019-05-14T18:15:14.814Z,35.55
2019-05-14T18:17:51.071Z,36.25
2019-05-14T18:20:28.684Z,37.45
2019-05-14T18:23:03.562Z,45.55
2019-05-14T18:25:39.294Z,48.10
2019-05-14T18:28:17.935Z,52.08
2019-05-14T18:30:52.862Z,53.05
2019-05-14T18:33:31.166Z,54.05
2019-05-14T18:38:39.340Z,54.48
2019-05-14T18:41:14.871Z,55.85
2019-05-14T18:43:50.603Z,54.42
2019-05-14T18:46:28.359Z,57.30
2019-05-14T18:49:03.175Z,58.42
2019-05-14T18:51:38.876Z,58.90
2019-05-14T18:54:14.697Z,58.87
2019-05-14T18:56:50.878Z,60.50
2019-05-14T18:59:30.534Z,56.40
2019-05-14T19:02:03.012Z,57.00
2019-05-14T19:04:38.673Z,59.48
2019-05-14T19:07:15.676Z,60.38
2019-05-14T19:09:51.355Z,58.68
2019-05-14T19:12:28.735Z,59.47
2019-05-14T19:15:03.590Z,59.95
2019-05-14T19:17:40.332Z,60.28
2019-05-14T19:20:19.064Z,58.92
2019-05-14T19:22:53.424Z,58.08
2019-05-14T19:25:29.643Z,61.42
2019-05-14T19:28:05.209Z,59.33
2019-05-14T19:30:40.786Z,58.40
2019-05-14T19:33:16.354Z,57.75
2019-05-14T19:35:53.096Z,58.85
2019-05-14T19:38:28.503Z,55.40
2019-05-14T19:41:04.142Z,56.10
2019-05-14T19:43:39.555Z,58.33
2019-05-14T19:46:15.415Z,57.53
2019-05-14T19:48:51.069Z,57.75
2019-05-14T19:51:27.881Z,55.15
2019-05-14T19:54:03.142Z,57.00
2019-05-14T19:56:52.429Z,58.52
2019-05-14T19:59:17.943Z,52.00
2019-05-14T20:04:29.017Z,52.75
2019-05-14T20:07:04.164Z,50.73
2019-05-14T20:09:40.018Z,49.30
2019-05-14T20:12:18.737Z,43.33
2019-05-14T20:14:54.799Z,39.37
2019-05-14T20:20:05.793Z,37.83
2019-05-14T20:22:42.059Z,34.27
2019-05-14T20:25:17.986Z,30.72
2019-05-14T20:27:54.430Z,31.95
2019-05-14T20:30:30.443Z,26.55
2019-05-14T20:33:08.494Z,28.23
2019-05-14T20:35:44.242Z,23.57
2019-05-14T20:38:20.452Z,17.57
2019-05-14T20:40:59.578Z,17.05
2019-05-14T20:43:35.610Z,16.40
2019-05-14T20:46:11.384Z,14.53
2019-05-14T20:48:50.500Z,14.87
2019-05-14T20:51:28.287Z,16.17
2019-05-14T20:54:05.647Z,15.68
2019-05-14T20:56:44.763Z,16.27
2019-05-14T20:59:21.258Z,26.12
2019-05-14T21:02:00.196Z,27.73
2019-05-14T21:04:36.877Z,17.45
2019-05-14T21:07:13.178Z,14.73
2019-05-14T21:09:49.223Z,15.50
2019-05-14T21:12:25.147Z,15.95
2019-05-14T21:15:01.457Z,14.87
2019-05-14T21:17:37.335Z,14.68
2019-05-14T21:20:13.128Z,14.95
2019-05-14T21:22:48.790Z,13.25
2019-05-14T21:25:24.531Z,12.90
2019-05-14T21:28:00.224Z,14.78
2019-05-14T21:30:36.008Z,17.12
2019-05-14T21:33:11.615Z,19.48
2019-05-14T21:35:48.498Z,18.00
2019-05-14T21:38:24.550Z,15.75
2019-05-14T21:41:00.199Z,15.03
2019-05-14T21:43:35.846Z,13.93
2019-05-14T21:46:11.665Z,15.63
2019-05-14T21:48:47.827Z,16.70
2019-05-14T21:51:23.638Z,16.82
2019-05-14T21:53:59.210Z,15.93
2019-05-14T21:56:34.905Z,16.23
2019-05-14T21:59:10.554Z,18.92
2019-05-14T22:01:48.458Z,17.02
2019-05-14T22:04:23.325Z,18.85
2019-05-14T22:06:59.137Z,23.12
2019-05-14T22:09:38.365Z,19.80
2019-05-14T22:12:12.049Z,19.67
2019-05-14T22:14:48.170Z,21.10
2019-05-14T22:17:24.181Z,21.17
2019-05-14T22:19:59.650Z,19.30
2019-05-14T22:22:35.433Z,20.52
2019-05-14T22:25:11.405Z,23.02
2019-05-14T22:27:48.388Z,23.55
2019-05-14T22:30:23.787Z,22.05
2019-05-14T22:33:00.699Z,25.65
2019-05-14T22:35:36.205Z,20.88
2019-05-14T22:38:12.073Z,22.15
2019-05-14T22:40:48.291Z,22.48
2019-05-14T22:43:24.035Z,21.07
2019-05-14T22:45:59.590Z,24.15
2019-05-14T22:48:35.381Z,22.90
2019-05-14T22:51:11.173Z,22.75
2019-05-14T22:53:49.281Z,21.52
2019-05-14T22:58:58.271Z,25.27
2019-05-14T23:01:34.033Z,33.70
2019-05-14T23:04:09.777Z,21.87
2019-05-14T23:06:45.358Z,21.37
2019-05-14T23:09:21.036Z,21.62
2019-05-14T23:11:58.863Z,21.65
2019-05-14T23:14:34.003Z,22.75
2019-05-14T23:17:09.706Z,19.73
2019-05-14T23:19:45.753Z,21.80
2019-05-14T23:22:21.358Z,22.83
2019-05-14T23:24:59.047Z,23.83
2019-05-14T23:30:08.235Z,24.45
2019-05-14T23:32:48.985Z,25.32
2019-05-14T23:37:59.285Z,28.12
2019-05-14T23:43:11.016Z,27.25
2019-05-14T23:45:47.056Z,29.73
2019-05-14T23:48:22.880Z,28.47
2019-05-14T23:50:59.146Z,30.05
2019-05-14T23:53:38.850Z,32.73
2019-05-14T23:56:13.848Z,30.85
2019-05-14T23:58:57.718Z,29.70
